Historique des mesures à Cassis (13260), France
Quotidien Résumé Avril 8, 2020 Unités:  US    Métrique   Métrique/US
Quotidien Hebdomadaire Mensuel Annuel
  Maximum: Minimum: Moyenne:
Température: 86.2 °F 68.2 °F 76.3 °F
Point de rosée: 61 °F 54.3 °F 57.9 °F
Humidité: 68% 42% 54%
Vitesse du vent: 4.2mph 0mph 1.4mph
Rafales: 10.5mph - -
Vent- - South
Pression: 30.1 in 30 in -
Précipitations: 0 in    
Historical Graphs
 
 
Mesures pour : Avril 8, 2020
Heure Temperature Point de rosée Pression Vent Vitesse du vent Rafales Humidité Pluie (par heure)
00:12 71.4 °F 57.7 °F 30 in NNE 1.4 mph 3.8 mph 62% 0 in
01:11 70.2 °F 59 °F 30 in NW 1.6 mph 4.7 mph 68% 0 in
02:11 69.6 °F 58.5 °F 30 in Calm   3.1 mph 68% 0 in
03:11 69.6 °F 58.1 °F 30 in Calm   2.7 mph 67% 0 in
04:11 68.9 °F 56.7 °F 30 in Calm   2.9 mph 65% 0 in
05:11 68.2 °F 55.6 °F 30 in Calm   3.1 mph 64% 0 in
06:12 69.1 °F 55 °F 30.1 in NW 1.6 mph 3.6 mph 61% 0 in
07:12 69.8 °F 54.3 °F 30.1 in North 3.1 mph 5.2 mph 58% 0 in
08:12 70.5 °F 54.5 °F 30.1 in NW 1.4 mph 4 mph 57% 0 in
09:12 73.8 °F 55.4 °F 30.1 in NE 4 mph 7.1 mph 53% 0 in
10:11 76.3 °F 55.8 °F 30.1 in Calm   3.6 mph 49% 0 in
11:11 78.6 °F 56.7 °F 30.1 in NW 1.4 mph 2.2 mph 47% 0 in
12:12 82.2 °F 58.6 °F 30.1 in SE 4.2 mph 6.3 mph 45% 0 in
13:11 85.8 °F 60.1 °F 30.1 in SSE 1.6 mph 10.5 mph 42% 0 in
14:11 86.2 °F 60.4 °F 30.1 in SE 2.7 mph 7.4 mph 42% 0 in
15:11 85.5 °F 59.7 °F 30.1 in Calm   5.8 mph 42% 0 in
16:12 84.9 °F 60.6 °F 30.1 in South 3.8 mph 6 mph 44% 0 in
17:11 84.4 °F 60.6 °F 30.1 in SSE 3.6 mph 4 mph 45% 0 in
18:11 82.8 °F 61 °F 30.1 in SE 1.1 mph 2.5 mph 48% 0 in
19:11 80.1 °F 59.7 °F 30.1 in Calm     50% 0 in
20:11 78.4 °F 59.9 °F 30.1 in Calm     53% 0 in
21:11 76.3 °F 58.5 °F 30.1 in NW 1.1 mph 4 mph 54% 0 in
22:11 74.8 °F 56.1 °F 30.1 in Calm   1.8 mph 52% 0 in
23:11 74.8 °F 57.6 °F 30.1 in Calm   2.2 mph 55% 0 in
Observations météo à CASSIS
WU-History script by Weather Underground - 2 mb